Time;durP1;ratioP1;P1;durP2;ratioP2;P2;SDS_P1;SDS_P2;PMS_P1;PMS_P2;Temp;Humidity;BMP_temperature;BMP_pressure;BME280_temperature;BME280_humidity;BME280_pressure;Samples;Min_cycle;Max_cycle;Signal;HPM_P1;HPM_P2
2021/04/21 00:00:38;;;;;;;63.00;39.53;;;;;;;;;;4976984;28;20034;-47
2021/04/21 00:03:04;;;;;;;61.08;39.28;;;;;;;;;;4994353;28;20385;-47
2021/04/21 00:05:30;;;;;;;55.47;34.58;;;;;;;;;;4994128;28;20092;-47
2021/04/21 00:07:58;;;;;;;52.45;33.88;;;;;;;;;;4994289;28;20042;-46
2021/04/21 00:10:25;;;;;;;47.58;30.85;;;;;;;;;;4994108;28;20101;-46
2021/04/21 00:12:51;;;;;;;54.67;34.58;;;;;;;;;;4994381;28;20033;-48
2021/04/21 00:15:23;;;;;;;48.65;33.15;;;;;;;;;;4994196;28;20018;-47
2021/04/21 00:17:50;;;;;;;53.70;34.65;;;;;;;;;;4994080;28;20382;-47
2021/04/21 00:20:19;;;;;;;70.97;42.67;;;;;;;;;;4994084;28;20113;-45
2021/04/21 00:22:48;;;;;;;51.67;34.47;;;;;;;;;;4994026;28;20026;-45
2021/04/21 00:25:15;;;;;;;55.95;33.70;;;;;;;;;;4976009;28;20541;-45
2021/04/21 00:27:43;;;;;;;59.92;37.53;;;;;;;;;;4951785;28;20027;-48
2021/04/21 00:30:11;;;;;;;56.53;33.80;;;;;;;;;;4947260;28;20133;-45
2021/04/21 00:32:41;;;;;;;74.43;44.22;;;;;;;;;;4963663;28;20019;-45
2021/04/21 00:35:08;;;;;;;61.80;38.35;;;;;;;;;;4962473;28;20425;-45
2021/04/21 00:37:34;;;;;;;84.88;51.33;;;;;;;;;;4963716;28;20042;-45
2021/04/21 00:40:03;;;;;;;53.42;35.00;;;;;;;;;;4963777;28;20114;-47
2021/04/21 00:42:36;;;;;;;84.30;49.80;;;;;;;;;;4965329;28;20049;-45
2021/04/21 00:45:06;;;;;;;74.50;44.80;;;;;;;;;;4974323;28;20023;-49
2021/04/21 00:47:58;;;;;;;52.33;33.75;;;;;;;;;;4977340;28;20027;-48
2021/04/21 00:50:48;;;;;;;55.60;34.95;;;;;;;;;;4978353;28;20042;-48
2021/04/21 00:53:23;;;;;;;93.05;53.72;;;;;;;;;;4937668;29;20066;-47
2021/04/21 00:56:03;;;;;;;58.10;38.08;;;;;;;;;;4937806;29;20036;-46
2021/04/21 00:58:37;;;;;;;49.47;31.73;;;;;;;;;;4937511;29;20051;-46
2021/04/21 01:01:03;;;;;;;47.60;29.52;;;;;;;;;;4937598;29;20071;-45
2021/04/21 01:03:29;;;;;;;41.60;27.48;;;;;;;;;;4921555;29;20380;-50
2021/04/21 01:05:58;;;;;;;42.15;27.63;;;;;;;;;;4937253;29;20091;-47
2021/04/21 01:08:27;;;;;;;41.45;27.20;;;;;;;;;;4937485;29;20040;-47
2021/04/21 01:10:57;;;;;;;42.55;26.80;;;;;;;;;;4937541;29;20039;-48
2021/04/21 01:13:26;;;;;;;42.92;28.60;;;;;;;;;;4937397;29;20039;-49
2021/04/21 01:15:53;;;;;;;47.80;29.23;;;;;;;;;;4937440;29;20036;-49
2021/04/21 01:18:19;;;;;;;44.55;28.48;;;;;;;;;;4937316;29;20039;-49
2021/04/21 01:20:52;;;;;;;40.72;25.77;;;;;;;;;;4937371;29;20057;-48
2021/04/21 01:23:35;;;;;;;39.10;25.13;;;;;;;;;;4937435;28;20035;-47
2021/04/21 01:26:19;;;;;;;37.70;24.42;;;;;;;;;;4937256;29;20164;-46
2021/04/21 01:28:48;;;;;;;41.80;25.17;;;;;;;;;;4937169;29;20546;-47
2021/04/21 01:31:16;;;;;;;37.55;24.95;;;;;;;;;;4973768;28;20051;-47
2021/04/21 01:33:47;;;;;;;36.10;23.95;;;;;;;;;;4977735;28;20050;-47
2021/04/21 01:36:13;;;;;;;34.53;22.58;;;;;;;;;;4977927;28;20038;-47
2021/04/21 01:38:40;;;;;;;39.90;24.98;;;;;;;;;;4977673;28;20031;-47
2021/04/21 01:41:09;;;;;;;42.40;26.23;;;;;;;;;;4977647;28;20027;-47
2021/04/21 01:43:39;;;;;;;37.40;23.83;;;;;;;;;;4977477;28;20101;-46
2021/04/21 01:46:06;;;;;;;35.17;23.35;;;;;;;;;;4977479;28;20479;-47
2021/04/21 01:48:34;;;;;;;31.20;20.60;;;;;;;;;;4977535;28;20110;-47
2021/04/21 01:51:04;;;;;;;37.63;24.10;;;;;;;;;;4977316;28;20114;-47
2021/04/21 01:53:39;;;;;;;32.33;21.20;;;;;;;;;;4977659;28;20045;-46
2021/04/21 01:56:20;;;;;;;30.73;20.95;;;;;;;;;;4977493;28;20062;-47
2021/04/21 01:59:05;;;;;;;30.55;21.27;;;;;;;;;;4975959;28;20110;-47
2021/04/21 02:02:03;;;;;;;30.63;20.27;;;;;;;;;;4977106;28;20113;-47
2021/04/21 02:04:29;;;;;;;31.05;20.63;;;;;;;;;;4936972;29;20495;-46
2021/04/21 02:07:12;;;;;;;29.15;19.55;;;;;;;;;;4936440;29;20562;-47
2021/04/21 02:09:38;;;;;;;34.38;20.80;;;;;;;;;;4936698;29;20031;-46
2021/04/21 02:12:16;;;;;;;27.92;18.48;;;;;;;;;;4936430;29;20036;-50
2021/04/21 02:14:48;;;;;;;29.85;20.15;;;;;;;;;;4936788;29;20115;-47
2021/04/21 02:17:33;;;;;;;28.83;19.40;;;;;;;;;;4936484;29;20047;-47
2021/04/21 02:20:17;;;;;;;29.95;19.77;;;;;;;;;;4936667;29;20052;-46
2021/04/21 02:22:51;;;;;;;28.92;18.95;;;;;;;;;;4936312;29;20027;-47
2021/04/21 02:25:35;;;;;;;31.20;19.40;;;;;;;;;;4936583;29;20512;-47
2021/04/21 02:28:13;;;;;;;33.08;20.98;;;;;;;;;;4936311;29;20481;-46
2021/04/21 02:30:44;;;;;;;29.83;19.20;;;;;;;;;;4936186;29;20031;-50
2021/04/21 02:33:16;;;;;;;30.73;19.67;;;;;;;;;;4936152;29;20040;-47
2021/04/21 02:35:50;;;;;;;24.88;17.17;;;;;;;;;;4935928;29;20536;-50
2021/04/21 02:38:18;;;;;;;28.17;19.02;;;;;;;;;;4936424;29;20046;-47
2021/04/21 02:40:44;;;;;;;28.35;18.45;;;;;;;;;;4966401;28;20054;-47
2021/04/21 02:43:18;;;;;;;25.30;17.55;;;;;;;;;;4976429;28;20023;-47
2021/04/21 02:45:55;;;;;;;26.10;17.67;;;;;;;;;;4976305;28;20027;-50
2021/04/21 02:48:40;;;;;;;28.30;18.60;;;;;;;;;;4976701;28;20023;-47
2021/04/21 02:51:14;;;;;;;27.75;17.05;;;;;;;;;;4976355;28;20109;-46
2021/04/21 02:53:50;;;;;;;29.73;18.88;;;;;;;;;;4976527;28;20105;-46
2021/04/21 02:56:19;;;;;;;27.92;18.40;;;;;;;;;;4976110;28;20027;-49
2021/04/21 02:59:03;;;;;;;32.15;17.70;;;;;;;;;;4976065;28;20510;-46
2021/04/21 03:01:44;;;;;;;27.63;17.50;;;;;;;;;;4976035;28;20150;-48
2021/04/21 03:04:10;;;;;;;;;;;;;;;;;;4976419;28;20078;-47
2021/04/21 03:06:38;;;;;;;28.85;18.40;;;;;;;;;;4975643;28;19917;-47
2021/04/21 03:09:05;;;;;;;26.17;17.98;;;;;;;;;;4975573;28;20031;-49
2021/04/21 03:11:32;;;;;;;29.63;18.65;;;;;;;;;;4975961;28;20074;-50
2021/04/21 03:14:04;;;;;;;27.80;17.60;;;;;;;;;;4976029;28;20098;-49
2021/04/21 03:16:32;;;;;;;27.20;17.20;;;;;;;;;;4975721;28;20030;-50
2021/04/21 03:18:59;;;;;;;30.05;18.27;;;;;;;;;;4975773;28;20093;-47
2021/04/21 03:21:27;;;;;;;30.48;18.23;;;;;;;;;;4975647;28;20383;-47
2021/04/21 03:24:06;;;;;;;33.10;18.30;;;;;;;;;;4975674;28;20444;-49
2021/04/21 03:26:33;;;;;;;28.67;18.50;;;;;;;;;;4975457;28;20109;-45
2021/04/21 03:29:01;;;;;;;30.98;18.42;;;;;;;;;;4975601;28;20057;-50
2021/04/21 03:31:29;;;;;;;29.73;19.35;;;;;;;;;;4975523;28;20530;-46
2021/04/21 03:33:57;;;;;;;28.30;18.33;;;;;;;;;;4975420;28;20031;-48
2021/04/21 03:36:23;;;;;;;31.27;19.05;;;;;;;;;;4975495;28;20057;-51
2021/04/21 03:38:50;;;;;;;30.75;19.17;;;;;;;;;;4975480;28;20027;-47
2021/04/21 03:41:16;;;;;;;37.35;21.02;;;;;;;;;;4975183;28;20034;-47
2021/04/21 03:43:42;;;;;;;34.83;19.73;;;;;;;;;;4975410;28;20073;-46
2021/04/21 03:46:11;;;;;;;31.77;19.95;;;;;;;;;;4975214;28;20106;-49
2021/04/21 03:48:37;;;;;;;32.72;20.13;;;;;;;;;;4975252;28;20407;-46
2021/04/21 03:51:06;;;;;;;43.70;20.80;;;;;;;;;;4975187;28;20019;-48
2021/04/21 03:53:36;;;;;;;33.35;20.52;;;;;;;;;;4975255;28;20019;-46
2021/04/21 03:56:02;;;;;;;34.03;20.90;;;;;;;;;;4975073;28;20049;-47
2021/04/21 03:58:29;;;;;;;31.88;21.05;;;;;;;;;;4975081;28;20053;-51
2021/04/21 04:01:04;;;;;;;39.85;23.15;;;;;;;;;;4975044;28;20106;-47
2021/04/21 04:03:32;;;;;;;41.72;24.92;;;;;;;;;;4974803;28;20508;-49
2021/04/21 04:06:02;;;;;;;55.42;33.72;;;;;;;;;;4974753;28;20420;-46
2021/04/21 04:08:33;;;;;;;47.22;28.83;;;;;;;;;;4974822;28;20081;-46
2021/04/21 04:11:00;;;;;;;38.67;26.57;;;;;;;;;;4974968;28;20491;-47
2021/04/21 04:13:29;;;;;;;50.05;32.28;;;;;;;;;;4974817;28;20283;-49
2021/04/21 04:15:56;;;;;;;46.45;30.73;;;;;;;;;;4974759;28;20047;-49
2021/04/21 04:18:24;;;;;;;41.83;26.95;;;;;;;;;;4974593;28;20066;-47
2021/04/21 04:20:51;;;;;;;48.13;32.63;;;;;;;;;;4974163;28;20053;-45
2021/04/21 04:23:18;;;;;;;38.40;26.33;;;;;;;;;;4974872;28;20027;-48
2021/04/21 04:25:46;;;;;;;53.90;27.65;;;;;;;;;;4974557;28;20077;-50
2021/04/21 04:28:13;;;;;;;43.05;26.08;;;;;;;;;;4974616;28;20434;-47
2021/04/21 04:30:40;;;;;;;47.50;24.73;;;;;;;;;;4974382;28;20060;-46
2021/04/21 04:33:07;;;;;;;45.30;24.60;;;;;;;;;;4974728;28;20077;-48
2021/04/21 04:35:35;;;;;;;43.83;25.67;;;;;;;;;;4974477;28;20027;-46
2021/04/21 04:38:02;;;;;;;49.65;27.13;;;;;;;;;;4974742;28;20030;-46
2021/04/21 04:40:28;;;;;;;38.13;23.15;;;;;;;;;;4974510;28;20057;-48
2021/04/21 04:42:54;;;;;;;41.60;23.92;;;;;;;;;;4974483;28;20471;-47
2021/04/21 04:45:21;;;;;;;39.95;23.17;;;;;;;;;;4956584;28;20049;-47
2021/04/21 04:47:52;;;;;;;33.97;21.27;;;;;;;;;;4974543;28;20098;-48
2021/04/21 04:50:22;;;;;;;34.93;22.37;;;;;;;;;;4974634;28;20162;-50
2021/04/21 04:52:49;;;;;;;37.20;21.80;;;;;;;;;;4974588;28;20265;-47
2021/04/21 04:55:16;;;;;;;32.58;21.98;;;;;;;;;;4974472;28;20031;-46
2021/04/21 04:57:43;;;;;;;34.47;22.85;;;;;;;;;;4974323;28;20023;-49
2021/04/21 05:00:11;;;;;;;39.58;23.27;;;;;;;;;;4974493;28;20038;-48
2021/04/21 05:02:45;;;;;;;50.70;26.45;;;;;;;;;;4974168;28;20023;-48
2021/04/21 05:05:12;;;;;;;60.80;36.25;;;;;;;;;;4974143;28;20089;-47
2021/04/21 05:07:38;;;;;;;57.42;34.75;;;;;;;;;;4974090;28;20055;-49
2021/04/21 05:10:12;;;;;;;47.83;29.42;;;;;;;;;;4974164;28;20114;-48
2021/04/21 05:12:39;;;;;;;47.72;26.33;;;;;;;;;;4973670;28;20034;-47
2021/04/21 05:15:05;;;;;;;40.47;23.90;;;;;;;;;;4974391;28;20023;-49
2021/04/21 05:17:50;;;;;;;51.40;33.58;;;;;;;;;;4974041;28;20019;-47
2021/04/21 05:20:25;;;;;;;50.45;30.50;;;;;;;;;;4974162;28;20041;-49
2021/04/21 05:23:07;;;;;;;32.63;22.33;;;;;;;;;;4974503;28;20395;-47
2021/04/21 05:25:59;;;;;;;35.88;21.30;;;;;;;;;;4974345;28;20051;-50
2021/04/21 05:28:44;;;;;;;41.28;23.40;;;;;;;;;;4972168;28;20097;-47
2021/04/21 05:31:16;;;;;;;42.63;24.05;;;;;;;;;;4973981;28;20118;-48
2021/04/21 05:34:00;;;;;;;40.42;23.30;;;;;;;;;;4976859;28;20467;-47
2021/04/21 05:36:38;;;;;;;39.85;22.17;;;;;;;;;;4977678;28;20053;-48
2021/04/21 05:39:04;;;;;;;41.88;24.77;;;;;;;;;;4977593;28;20050;-48
2021/04/21 05:41:33;;;;;;;38.70;22.58;;;;;;;;;;4977610;28;20019;-49
2021/04/21 05:44:09;;;;;;;39.95;22.70;;;;;;;;;;4977544;28;20058;-49
2021/04/21 05:46:53;;;;;;;34.78;22.45;;;;;;;;;;4977501;28;20023;-49
2021/04/21 05:49:35;;;;;;;30.70;19.90;;;;;;;;;;4977364;28;20066;-49
2021/04/21 05:52:19;;;;;;;40.10;20.35;;;;;;;;;;4977351;28;20082;-49
2021/04/21 05:55:04;;;;;;;35.97;19.60;;;;;;;;;;4977341;28;20023;-48
2021/04/21 05:57:47;;;;;;;38.30;22.73;;;;;;;;;;4977286;28;20027;-49
2021/04/21 06:00:27;;;;;;;43.88;24.25;;;;;;;;;;4977490;28;20074;-50
2021/04/21 06:02:54;;;;;;;39.90;21.33;;;;;;;;;;4977123;28;20026;-49
2021/04/21 06:05:20;;;;;;;38.55;21.15;;;;;;;;;;4976944;28;20086;-49
2021/04/21 06:07:46;;;;;;;31.58;20.20;;;;;;;;;;4976863;28;20057;-48
2021/04/21 06:10:20;;;;;;;28.90;17.00;;;;;;;;;;4976868;28;20027;-49
2021/04/21 06:12:46;;;;;;;30.38;18.42;;;;;;;;;;4977087;28;20078;-48
2021/04/21 06:15:16;;;;;;;55.05;30.23;;;;;;;;;;4976799;28;20023;-49
2021/04/21 06:17:46;;;;;;;46.10;25.05;;;;;;;;;;4976768;28;20036;-49
2021/04/21 06:20:16;;;;;;;45.22;26.08;;;;;;;;;;4976748;28;20037;-48
2021/04/21 06:22:42;;;;;;;68.60;34.97;;;;;;;;;;4976783;28;20027;-47
2021/04/21 06:25:16;;;;;;;53.38;28.10;;;;;;;;;;4976758;28;20030;-49
2021/04/21 06:27:42;;;;;;;36.95;22.80;;;;;;;;;;4976704;28;20444;-47
2021/04/21 06:30:09;;;;;;;33.45;22.50;;;;;;;;;;4976641;28;20033;-49
2021/04/21 06:32:38;;;;;;;66.40;35.63;;;;;;;;;;4976469;28;20081;-48
2021/04/21 06:35:10;;;;;;;40.92;23.38;;;;;;;;;;4976371;28;20486;-50
2021/04/21 06:37:37;;;;;;;72.80;38.38;;;;;;;;;;4976639;28;20030;-49
2021/04/21 06:40:04;;;;;;;61.42;36.65;;;;;;;;;;4976489;28;20035;-49
2021/04/21 06:42:30;;;;;;;55.45;32.95;;;;;;;;;;4976414;28;20026;-49
2021/04/21 06:44:58;;;;;;;48.33;28.77;;;;;;;;;;4975635;28;20498;-49
2021/04/21 06:47:25;;;;;;;43.30;26.25;;;;;;;;;;4976252;28;20106;-49
2021/04/21 06:50:18;;;;;;;52.38;28.92;;;;;;;;;;4976338;28;20084;-50
2021/04/21 06:52:44;;;;;;;57.85;34.45;;;;;;;;;;4974380;28;20047;-49
2021/04/21 06:55:12;;;;;;;83.13;42.67;;;;;;;;;;4976364;28;20110;-49
2021/04/21 06:57:38;;;;;;;69.00;37.97;;;;;;;;;;4976007;28;20023;-49
2021/04/21 07:00:04;;;;;;;57.80;34.30;;;;;;;;;;4976115;28;20043;-49
2021/04/21 07:02:47;;;;;;;71.88;33.92;;;;;;;;;;4976251;28;20018;-48
2021/04/21 07:05:31;;;;;;;77.75;31.38;;;;;;;;;;4975959;28;20467;-47
2021/04/21 07:08:03;;;;;;;83.07;42.60;;;;;;;;;;4976223;28;20070;-48
2021/04/21 07:10:30;;;;;;;72.18;39.58;;;;;;;;;;4975907;28;20031;-48
2021/04/21 07:12:57;;;;;;;51.30;25.55;;;;;;;;;;4976142;28;20373;-48
2021/04/21 07:15:24;;;;;;;48.45;25.42;;;;;;;;;;4975881;28;20026;-50
2021/04/21 07:17:50;;;;;;;55.53;25.85;;;;;;;;;;4975875;28;20015;-50
2021/04/21 07:20:17;;;;;;;49.38;23.35;;;;;;;;;;4975722;28;20085;-48
2021/04/21 07:22:46;;;;;;;41.47;21.10;;;;;;;;;;4975925;28;20023;-48
2021/04/21 07:25:14;;;;;;;40.10;20.55;;;;;;;;;;4975625;28;20392;-50
2021/04/21 07:27:42;;;;;;;45.10;22.27;;;;;;;;;;4975730;28;20027;-49
2021/04/21 07:30:08;;;;;;;30.63;20.33;;;;;;;;;;4975685;28;20432;-49
2021/04/21 07:32:42;;;;;;;28.80;19.05;;;;;;;;;;4975544;28;20030;-49
2021/04/21 07:35:09;;;;;;;33.70;20.75;;;;;;;;;;4975502;28;20705;-50
2021/04/21 07:37:43;;;;;;;39.92;22.20;;;;;;;;;;4975482;28;20039;-49
2021/04/21 07:40:22;;;;;;;27.92;18.67;;;;;;;;;;4975834;28;20081;-50
2021/04/21 07:42:48;;;;;;;34.03;19.90;;;;;;;;;;4975311;28;20025;-49
2021/04/21 07:45:16;;;;;;;27.70;18.70;;;;;;;;;;4975374;28;20025;-50
2021/04/21 07:47:42;;;;;;;26.63;18.52;;;;;;;;;;4974856;28;20033;-47
2021/04/21 07:50:09;;;;;;;40.13;24.33;;;;;;;;;;4974986;28;20030;-50
2021/04/21 07:52:39;;;;;;;43.75;26.00;;;;;;;;;;4975102;28;20387;-49
2021/04/21 07:55:05;;;;;;;28.00;19.15;;;;;;;;;;4975245;28;20072;-50
2021/04/21 07:57:34;;;;;;;27.75;19.08;;;;;;;;;;4975153;28;20062;-49
2021/04/21 08:00:00;;;;;;;34.70;19.10;;;;;;;;;;4975246;28;20066;-47
2021/04/21 08:02:30;;;;;;;26.33;18.20;;;;;;;;;;4974897;28;20023;-48
2021/04/21 08:04:58;;;;;;;21.33;16.63;;;;;;;;;;4974870;28;20440;-49
2021/04/21 08:07:43;;;;;;;33.42;18.60;;;;;;;;;;4974727;28;20277;-48
2021/04/21 08:10:24;;;;;;;36.78;22.10;;;;;;;;;;4974747;28;20037;-47
2021/04/21 08:12:51;;;;;;;28.83;18.60;;;;;;;;;;4974833;28;20027;-48
2021/04/21 08:15:18;;;;;;;38.85;25.40;;;;;;;;;;4974846;28;20094;-48
2021/04/21 08:18:04;;;;;;;54.70;35.97;;;;;;;;;;4974529;28;20027;-49
2021/04/21 08:20:33;;;;;;;78.38;42.60;;;;;;;;;;4974538;28;20094;-49
2021/04/21 08:23:05;;;;;;;50.83;29.67;;;;;;;;;;4974612;28;20019;-46
2021/04/21 08:25:32;;;;;;;71.32;37.47;;;;;;;;;;4974562;28;20034;-50
2021/04/21 08:27:59;;;;;;;42.50;28.02;;;;;;;;;;4974482;28;20467;-49
2021/04/21 08:30:25;;;;;;;20.52;16.02;;;;;;;;;;4974113;28;20030;-46
2021/04/21 08:32:52;;;;;;;34.17;19.42;;;;;;;;;;4974406;28;20030;-47
2021/04/21 08:35:18;;;;;;;43.55;29.35;;;;;;;;;;4974547;28;20034;-47
2021/04/21 08:37:44;;;;;;;50.55;31.42;;;;;;;;;;4974383;28;20035;-51
2021/04/21 08:40:11;;;;;;;34.90;23.42;;;;;;;;;;4974515;28;20118;-46
2021/04/21 08:42:42;;;;;;;89.80;50.58;;;;;;;;;;4974560;28;20030;-58
2021/04/21 08:45:08;;;;;;;50.55;32.17;;;;;;;;;;4974525;28;20502;-51
2021/04/21 08:47:35;;;;;;;28.40;20.15;;;;;;;;;;4974537;28;20450;-48
2021/04/21 08:50:03;;;;;;;40.90;23.13;;;;;;;;;;4974479;28;20022;-47
2021/04/21 08:52:32;;;;;;;30.75;20.45;;;;;;;;;;4974368;28;20019;-47
2021/04/21 08:54:58;;;;;;;85.05;48.38;;;;;;;;;;4974467;28;20038;-53
2021/04/21 08:57:25;;;;;;;160.95;80.30;;;;;;;;;;4960326;28;20068;-47
2021/04/21 08:59:54;;;;;;;115.70;56.00;;;;;;;;;;4945342;28;20042;-47
2021/04/21 09:02:20;;;;;;;80.55;39.58;;;;;;;;;;4944238;28;20023;-47
2021/04/21 09:04:46;;;;;;;31.35;20.88;;;;;;;;;;4944159;28;20023;-48
2021/04/21 09:07:12;;;;;;;71.22;36.55;;;;;;;;;;4944839;28;20362;-47
2021/04/21 09:09:41;;;;;;;64.00;31.58;;;;;;;;;;4948070;28;20027;-47
2021/04/21 09:12:08;;;;;;;22.48;15.25;;;;;;;;;;4949630;28;20410;-46
2021/04/21 09:14:34;;;;;;;33.40;16.38;;;;;;;;;;4948081;28;20093;-48
2021/04/21 09:17:01;;;;;;;60.72;23.48;;;;;;;;;;4948050;28;20396;-46
2021/04/21 09:19:27;;;;;;;59.58;22.63;;;;;;;;;;4947807;28;20027;-49
2021/04/21 09:22:06;;;;;;;54.30;22.90;;;;;;;;;;4947955;28;20027;-49
2021/04/21 09:24:36;;;;;;;21.38;13.10;;;;;;;;;;4947866;28;20027;-48
2021/04/21 09:27:22;;;;;;;56.13;24.85;;;;;;;;;;4945088;28;20049;-47
2021/04/21 09:29:48;;;;;;;34.75;17.05;;;;;;;;;;4947721;28;20031;-48
2021/04/21 09:32:14;;;;;;;29.88;15.30;;;;;;;;;;4947597;28;20023;-48
2021/04/21 09:34:58;;;;;;;37.55;19.75;;;;;;;;;;4947631;28;20773;-48
2021/04/21 09:37:25;;;;;;;84.53;46.58;;;;;;;;;;4947624;28;20042;-48
2021/04/21 09:39:51;;;;;;;23.27;15.65;;;;;;;;;;4947523;28;20058;-50
2021/04/21 09:42:25;;;;;;;67.05;39.47;;;;;;;;;;4947633;28;20031;-49
2021/04/21 09:44:52;;;;;;;31.08;19.75;;;;;;;;;;4948228;28;20023;-49
2021/04/21 09:47:20;;;;;;;56.95;36.75;;;;;;;;;;4944509;28;20066;-48
2021/04/21 09:49:47;;;;;;;34.95;22.83;;;;;;;;;;4947384;28;20102;-48
2021/04/21 09:52:14;;;;;;;170.15;107.57;;;;;;;;;;4947261;28;20066;-48
2021/04/21 09:54:42;;;;;;;105.30;69.43;;;;;;;;;;4947170;28;20035;-50
2021/04/21 09:57:08;;;;;;;101.43;64.72;;;;;;;;;;4947414;28;20707;-50
2021/04/21 09:59:35;;;;;;;68.03;44.10;;;;;;;;;;4948313;28;20358;-48
2021/04/21 10:02:01;;;;;;;53.25;30.17;;;;;;;;;;4947524;28;20117;-48
2021/04/21 10:04:29;;;;;;;72.18;42.08;;;;;;;;;;4948225;28;20436;-48
2021/04/21 10:06:55;;;;;;;30.88;21.38;;;;;;;;;;4947100;28;20126;-48
2021/04/21 10:09:28;;;;;;;94.25;58.15;;;;;;;;;;4946822;28;20038;-49
2021/04/21 10:12:14;;;;;;;48.22;29.85;;;;;;;;;;4947074;28;20027;-48
2021/04/21 10:14:41;;;;;;;135.05;76.65;;;;;;;;;;4867556;29;20428;-47
2021/04/21 10:17:07;;;;;;;56.17;33.70;;;;;;;;;;4867961;29;20565;-47
2021/04/21 10:19:34;;;;;;;23.17;17.15;;;;;;;;;;4867730;29;20544;-48
2021/04/21 10:22:00;;;;;;;120.13;75.13;;;;;;;;;;4867560;29;20044;-48
2021/04/21 10:24:27;;;;;;;25.92;19.17;;;;;;;;;;4867876;29;20553;-46
2021/04/21 10:26:54;;;;;;;39.55;26.73;;;;;;;;;;4872293;29;20053;-47
2021/04/21 10:29:21;;;;;;;48.35;33.03;;;;;;;;;;4867015;29;20025;-47
2021/04/21 10:31:47;;;;;;;56.10;29.55;;;;;;;;;;4868049;29;20151;-47
2021/04/21 10:34:14;;;;;;;74.25;50.58;;;;;;;;;;4866926;29;20025;-47
2021/04/21 10:36:42;;;;;;;73.57;46.13;;;;;;;;;;4869178;29;20081;-48
2021/04/21 10:39:08;;;;;;;87.60;53.38;;;;;;;;;;4871861;29;20175;-48
2021/04/21 10:41:35;;;;;;;140.95;92.55;;;;;;;;;;4872098;29;20036;-48
2021/04/21 10:44:07;;;;;;;30.35;20.75;;;;;;;;;;4870033;29;20036;-49
2021/04/21 10:46:52;;;;;;;29.80;21.83;;;;;;;;;;4871596;29;20212;-48
2021/04/21 10:49:36;;;;;;;26.55;16.75;;;;;;;;;;4869388;29;20136;-49
2021/04/21 10:52:12;;;;;;;45.40;27.80;;;;;;;;;;4916123;28;20518;-48
2021/04/21 10:54:38;;;;;;;23.35;15.27;;;;;;;;;;4950952;28;20681;-49
2021/04/21 10:57:25;;;;;;;36.42;23.02;;;;;;;;;;4948457;28;20034;-47
2021/04/21 11:00:06;;;;;;;26.58;17.83;;;;;;;;;;4947499;28;20035;-48
2021/04/21 11:02:44;;;;;;;53.17;30.13;;;;;;;;;;4945938;28;20061;-48
2021/04/21 11:05:23;;;;;;;56.20;33.58;;;;;;;;;;4945981;28;20484;-48
2021/04/21 11:08:03;;;;;;;29.90;18.80;;;;;;;;;;4945877;28;20051;-48
2021/04/21 11:10:45;;;;;;;46.15;20.17;;;;;;;;;;4946103;28;20732;-47
2021/04/21 11:13:12;;;;;;;41.90;22.67;;;;;;;;;;4946037;28;20034;-47
2021/04/21 11:15:49;;;;;;;31.98;19.08;;;;;;;;;;4946376;28;20026;-47
2021/04/21 11:18:22;;;;;;;49.28;30.60;;;;;;;;;;4945561;28;20027;-48
2021/04/21 11:20:48;;;;;;;31.95;19.52;;;;;;;;;;4946554;28;20031;-48
2021/04/21 11:23:35;;;;;;;22.73;15.20;;;;;;;;;;4945547;28;20011;-47
2021/04/21 11:26:19;;;;;;;27.67;14.30;;;;;;;;;;4946917;28;20034;-48
2021/04/21 11:29:04;;;;;;;51.50;34.30;;;;;;;;;;4945474;28;20027;-47
2021/04/21 11:34:14;;;;;;;39.65;28.92;;;;;;;;;;4945361;28;20039;-49
2021/04/21 11:36:48;;;;;;;221.13;148.48;;;;;;;;;;4945128;28;20027;-49
2021/04/21 11:39:15;;;;;;;61.95;39.70;;;;;;;;;;4945020;28;20043;-48
2021/04/21 11:41:42;;;;;;;45.33;30.48;;;;;;;;;;4945312;28;20150;-48
2021/04/21 11:44:10;;;;;;;59.60;37.90;;;;;;;;;;4945343;28;20130;-48
2021/04/21 11:46:55;;;;;;;41.67;27.17;;;;;;;;;;4945706;28;20674;-48
2021/04/21 11:49:40;;;;;;;73.57;45.70;;;;;;;;;;4938656;28;20571;-47
2021/04/21 11:52:06;;;;;;;149.32;89.97;;;;;;;;;;4946034;28;20110;-47
2021/04/21 11:54:37;;;;;;;98.80;58.75;;;;;;;;;;4945151;28;20815;-48
2021/04/21 11:57:03;;;;;;;62.60;35.00;;;;;;;;;;4945068;28;20096;-47
2021/04/21 11:59:30;;;;;;;47.17;28.55;;;;;;;;;;4944833;28;20114;-48
2021/04/21 12:01:56;;;;;;;39.83;23.50;;;;;;;;;;4944858;28;20031;-46
2021/04/21 12:04:27;;;;;;;34.40;21.23;;;;;;;;;;4944824;28;20027;-47
2021/04/21 12:06:53;;;;;;;136.07;80.17;;;;;;;;;;4945948;28;20050;-43
2021/04/21 12:09:19;;;;;;;101.07;55.58;;;;;;;;;;4944611;28;20799;-47
2021/04/21 12:11:45;;;;;;;92.57;50.90;;;;;;;;;;4944639;28;20106;-46
2021/04/21 12:14:18;;;;;;;90.45;52.83;;;;;;;;;;4944603;28;20030;-45
2021/04/21 12:16:44;;;;;;;57.80;37.85;;;;;;;;;;4946127;28;20066;-45
2021/04/21 12:19:10;;;;;;;80.82;50.72;;;;;;;;;;4944712;28;20030;-49
2021/04/21 12:21:37;;;;;;;47.63;30.02;;;;;;;;;;4945779;28;20031;-48
2021/04/21 12:24:04;;;;;;;31.67;20.42;;;;;;;;;;4944755;28;20549;-49
2021/04/21 12:26:35;;;;;;;79.40;32.47;;;;;;;;;;4952102;28;20093;-49
2021/04/21 12:29:09;;;;;;;33.47;14.48;;;;;;;;;;4955402;29;20479;-49
2021/04/21 12:31:35;;;;;;;46.53;17.20;;;;;;;;;;4955247;28;20027;-48
2021/04/21 12:34:03;;;;;;;36.42;18.70;;;;;;;;;;4955158;28;20022;-49
2021/04/21 12:36:31;;;;;;;24.25;16.85;;;;;;;;;;4972372;28;20031;-49
2021/04/21 12:39:10;;;;;;;20.38;14.65;;;;;;;;;;4974351;28;20023;-49
2021/04/21 12:41:45;;;;;;;18.52;12.73;;;;;;;;;;4974367;28;20373;-48
2021/04/21 12:44:19;;;;;;;22.73;13.15;;;;;;;;;;4974337;28;20034;-48
2021/04/21 12:46:47;;;;;;;18.75;11.90;;;;;;;;;;4974505;28;20031;-49
2021/04/21 12:49:14;;;;;;;20.58;12.75;;;;;;;;;;4972750;28;20037;-49
2021/04/21 12:51:49;;;;;;;18.85;13.13;;;;;;;;;;4946223;28;20022;-49
2021/04/21 12:54:30;;;;;;;169.93;115.40;;;;;;;;;;4928247;28;20539;-48
2021/04/21 12:56:57;;;;;;;75.82;52.10;;;;;;;;;;4944519;28;20018;-48
2021/04/21 12:59:23;;;;;;;105.22;65.03;;;;;;;;;;4944378;28;20353;-47
2021/04/21 13:01:49;;;;;;;70.05;43.10;;;;;;;;;;4944320;28;20046;-47
2021/04/21 13:04:16;;;;;;;73.15;45.30;;;;;;;;;;4944402;28;20035;-49
2021/04/21 13:06:45;;;;;;;53.15;33.35;;;;;;;;;;4943681;28;20059;-47
2021/04/21 13:09:13;;;;;;;71.22;34.55;;;;;;;;;;4944778;28;20069;-48
2021/04/21 13:11:40;;;;;;;49.85;22.95;;;;;;;;;;4943512;28;20035;-46
2021/04/21 13:14:06;;;;;;;24.30;15.75;;;;;;;;;;4943342;28;20045;-47
2021/04/21 13:16:35;;;;;;;25.98;14.88;;;;;;;;;;4943521;28;20035;-49
2021/04/21 13:19:29;;;;;;;22.35;10.38;;;;;;;;;;4944462;28;20147;-46
2021/04/21 13:21:58;;;;;;;25.17;9.95;;;;;;;;;;4859128;29;20041;-46
2021/04/21 13:24:27;;;;;;;21.40;11.73;;;;;;;;;;4859015;29;20692;-46
2021/04/21 13:26:57;;;;;;;24.95;12.07;;;;;;;;;;4858934;29;20931;-45
2021/04/21 13:29:36;;;;;;;50.10;25.80;;;;;;;;;;4858632;29;20033;-45
2021/04/21 13:32:08;;;;;;;52.88;19.70;;;;;;;;;;4858989;29;20066;-46
2021/04/21 13:34:36;;;;;;;68.72;31.52;;;;;;;;;;4859648;29;20029;-48
2021/04/21 13:37:03;;;;;;;33.58;14.93;;;;;;;;;;4859110;29;20060;-48
2021/04/21 13:39:29;;;;;;;35.78;16.73;;;;;;;;;;4858661;29;20037;-47
2021/04/21 13:41:55;;;;;;;37.13;19.90;;;;;;;;;;4858291;29;20101;-48
2021/04/21 13:44:23;;;;;;;37.10;18.55;;;;;;;;;;4858694;29;20025;-48
2021/04/21 13:46:49;;;;;;;14.80;7.40;;;;;;;;;;4858616;29;20041;-47
2021/04/21 13:49:17;;;;;;;11.45;5.85;;;;;;;;;;4858406;29;20025;-50
2021/04/21 13:51:44;;;;;;;19.15;8.05;;;;;;;;;;4858564;29;20041;-48
2021/04/21 13:54:12;;;;;;;9.10;5.45;;;;;;;;;;4860114;29;20793;-52
2021/04/21 13:56:38;;;;;;;13.75;7.75;;;;;;;;;;4860450;29;20152;-49
2021/04/21 13:59:05;;;;;;;14.25;6.35;;;;;;;;;;4904015;28;20046;-47
2021/04/21 14:01:32;;;;;;;18.70;10.32;;;;;;;;;;4945872;28;20058;-49
2021/04/21 14:03:58;;;;;;;31.35;20.15;;;;;;;;;;4945649;28;20046;-49
2021/04/21 14:06:24;;;;;;;24.48;11.57;;;;;;;;;;4914441;28;728241;-49
2021/04/21 14:08:51;;;;;;;27.90;14.45;;;;;;;;;;4947240;28;20447;-47
2021/04/21 14:11:17;;;;;;;41.80;27.40;;;;;;;;;;4947140;28;20027;-47
2021/04/21 14:13:43;;;;;;;22.27;13.90;;;;;;;;;;4947609;28;20035;-48
2021/04/21 14:16:09;;;;;;;67.18;35.85;;;;;;;;;;4946963;28;20058;-48
2021/04/21 14:18:35;;;;;;;53.63;28.75;;;;;;;;;;4946902;28;20027;-47
2021/04/21 14:21:02;;;;;;;67.05;41.50;;;;;;;;;;4946723;28;20039;-47
2021/04/21 14:23:28;;;;;;;31.88;17.95;;;;;;;;;;4948065;28;20062;-47
2021/04/21 14:25:54;;;;;;;31.42;19.67;;;;;;;;;;4946659;28;20037;-48
2021/04/21 14:28:21;;;;;;;18.15;11.55;;;;;;;;;;4945667;28;20023;-48
2021/04/21 14:30:47;;;;;;;22.95;12.57;;;;;;;;;;4946535;28;20142;-48
2021/04/21 14:33:13;;;;;;;52.13;29.38;;;;;;;;;;4946537;28;20535;-48
2021/04/21 14:35:40;;;;;;;42.92;22.92;;;;;;;;;;4929359;28;20343;-48
2021/04/21 14:38:06;;;;;;;16.55;10.88;;;;;;;;;;4945979;28;20467;-48